Time;durP1;ratioP1;P1;durP2;ratioP2;P2;SDS_P1;SDS_P2;PMS_P1;PMS_P2;Temp;Humidity;BMP_temperature;BMP_pressure;BME280_temperature;BME280_humidity;BME280_pressure;Samples;Min_cycle;Max_cycle;Signal;HPM_P1;HPM_P2
2022/03/31 00:01:28;;;;;;;;;;;4.10;99.90;;;;;;5093118;28;20277;-77
2022/03/31 00:03:53;;;;;;;;;;;4.20;99.90;;;;;;5090781;28;19908;-76
2022/03/31 00:06:19;;;;;;;;;;;4.30;99.90;;;;;;5093144;28;19916;-77
2022/03/31 00:08:45;;;;;;;;;;;4.30;99.90;;;;;;5092750;28;19909;-75
2022/03/31 00:11:12;;;;;;;;;;;4.30;99.90;;;;;;5092876;28;19931;-75
2022/03/31 00:13:38;;;;;;;;;;;4.30;99.90;;;;;;5091431;28;20002;-76
2022/03/31 00:16:03;;;;;;;;;;;4.30;99.90;;;;;;5092784;28;20066;-75
2022/03/31 00:18:31;;;;;;;;;;;4.20;99.90;;;;;;5092943;28;19908;-75
2022/03/31 00:20:57;;;;;;;;;;;4.20;99.90;;;;;;5090855;28;19968;-75
2022/03/31 00:23:22;;;;;;;;;;;4.20;99.90;;;;;;5092671;28;20429;-75
2022/03/31 00:25:48;;;;;;;;;;;4.10;99.90;;;;;;5091940;28;19958;-75
2022/03/31 00:28:14;;;;;;;;;;;4.10;99.90;;;;;;5092797;28;19935;-75
2022/03/31 00:30:40;;;;;;;;;;;4.10;99.90;;;;;;5092176;28;19908;-75
2022/03/31 00:33:05;;;;;;;;;;;4.10;99.90;;;;;;5095084;28;19976;-74
2022/03/31 00:35:31;;;;;;;;;;;4.10;99.90;;;;;;5102868;28;19908;-75
2022/03/31 00:37:57;;;;;;;;;;;4.10;99.90;;;;;;5094764;28;20555;-75
2022/03/31 00:40:23;;;;;;;;;;;4.10;99.90;;;;;;5092565;28;19912;-75
2022/03/31 00:42:49;;;;;;;;;;;4.10;99.90;;;;;;5092150;28;19909;-76
2022/03/31 00:45:16;;;;;;;;;;;4.10;99.90;;;;;;5092713;28;19919;-76
2022/03/31 00:47:42;;;;;;;;;;;4.00;99.90;;;;;;5096102;28;19921;-76
2022/03/31 00:50:08;;;;;;;;;;;4.10;99.90;;;;;;5096658;28;19912;-77
2022/03/31 00:52:34;;;;;;;;;;;4.10;99.90;;;;;;5096285;28;19908;-77
2022/03/31 00:55:00;;;;;;;;;;;4.00;99.90;;;;;;5095502;28;20458;-76
2022/03/31 00:57:25;;;;;;;;;;;4.00;99.90;;;;;;5096576;28;19912;-76
2022/03/31 00:59:52;;;;;;;;;;;4.00;99.90;;;;;;5095988;28;20356;-77
2022/03/31 01:02:18;;;;;;;;;;;4.00;99.90;;;;;;5096231;28;20340;-76
2022/03/31 01:04:43;;;;;;;;;;;4.10;99.90;;;;;;5095602;28;19912;-77
2022/03/31 01:07:09;;;;;;;;;;;4.00;99.90;;;;;;5096645;28;20341;-76
2022/03/31 01:09:35;;;;;;;;;;;4.00;99.90;;;;;;5095942;28;19954;-76
2022/03/31 01:12:01;;;;;;;;;;;4.00;99.90;;;;;;5095699;28;19911;-76
2022/03/31 01:14:28;;;;;;;;;;;4.00;99.90;;;;;;5095787;28;20263;-76
2022/03/31 01:16:53;;;;;;;;;;;4.00;99.90;;;;;;5095330;28;19912;-76
2022/03/31 01:19:19;;;;;;;;;;;4.00;99.90;;;;;;5096064;28;19908;-76
2022/03/31 01:21:48;;;;;;;;;;;3.90;99.90;;;;;;5100696;28;19909;-76
2022/03/31 01:24:14;;;;;;;;;;;3.90;99.90;;;;;;5098561;28;20006;-76
2022/03/31 01:26:40;;;;;;;;;;;3.90;99.90;;;;;;5095523;28;20440;-76
2022/03/31 01:29:06;;;;;;;;;;;4.00;99.90;;;;;;5095467;28;19908;-76
2022/03/31 01:31:32;;;;;;;;;;;4.00;99.90;;;;;;5096125;28;20264;-76
2022/03/31 01:33:58;;;;;;;;;;;4.00;99.90;;;;;;5095167;28;19908;-76
2022/03/31 01:36:24;;;;;;;;;;;4.00;99.90;;;;;;5095649;28;20372;-76
2022/03/31 01:38:49;;;;;;;;;;;4.00;99.90;;;;;;5095100;28;19915;-76
2022/03/31 01:41:15;;;;;;;;;;;4.00;99.90;;;;;;5095669;28;19951;-76
2022/03/31 01:43:41;;;;;;;;;;;4.00;99.90;;;;;;5095579;28;19908;-76
2022/03/31 01:46:08;;;;;;;;;;;4.10;99.90;;;;;;5094722;28;19912;-76
2022/03/31 01:48:34;;;;;;;;;;;4.10;99.90;;;;;;5094844;28;19916;-76
2022/03/31 01:51:00;;;;;;;;;;;4.20;99.90;;;;;;5094657;28;19953;-76
2022/03/31 01:53:26;;;;;;;;;;;4.20;99.90;;;;;;5095262;28;19999;-77
2022/03/31 01:55:51;;;;;;;;;;;4.10;99.90;;;;;;5094688;28;20269;-76
2022/03/31 01:58:17;;;;;;;;;;;4.00;99.90;;;;;;5093948;28;19921;-76
2022/03/31 02:00:45;;;;;;;;;;;4.10;99.90;;;;;;5094002;28;20215;-76
2022/03/31 02:03:10;;;;;;;;;;;4.10;99.90;;;;;;5094968;28;19908;-77
2022/03/31 02:05:36;;;;;;;;;;;4.00;99.90;;;;;;5099113;28;19912;-77
2022/03/31 02:08:02;;;;;;;;;;;4.00;99.90;;;;;;5105739;28;19951;-77
2022/03/31 02:10:28;;;;;;;;;;;4.00;99.90;;;;;;5095171;28;19975;-77
2022/03/31 02:12:54;;;;;;;;;;;4.00;99.90;;;;;;5094639;28;20327;-77
2022/03/31 02:15:20;;;;;;;;;;;4.00;99.90;;;;;;5095129;28;19908;-77
2022/03/31 02:17:46;;;;;;;;;;;4.00;99.90;;;;;;5094673;28;19908;-77
2022/03/31 02:20:12;;;;;;;;;;;4.00;99.90;;;;;;5094951;28;20363;-77
2022/03/31 02:22:39;;;;;;;;;;;4.00;99.90;;;;;;5094711;28;19912;-77
2022/03/31 02:25:09;;;;;;;;;;;3.90;99.90;;;;;;5094198;28;20634;-77
2022/03/31 02:27:35;;;;;;;;;;;4.00;99.90;;;;;;5094865;28;20290;-77
2022/03/31 02:30:01;;;;;;;;;;;4.00;99.90;;;;;;5093998;28;19931;-77
2022/03/31 02:32:27;;;;;;;;;;;3.90;99.90;;;;;;5094848;28;20354;-77
2022/03/31 02:34:53;;;;;;;;;;;4.00;99.90;;;;;;5094224;28;19908;-78
2022/03/31 02:37:19;;;;;;;;;;;4.00;99.90;;;;;;5094508;28;19962;-77
2022/03/31 02:39:44;;;;;;;;;;;3.90;99.90;;;;;;5094639;28;19947;-77
2022/03/31 02:42:10;;;;;;;;;;;3.90;99.90;;;;;;5093855;28;19908;-77
2022/03/31 02:44:35;;;;;;;;;;;3.90;99.90;;;;;;5094463;28;20314;-77
2022/03/31 02:47:01;;;;;;;;;;;3.90;99.90;;;;;;5093866;28;20420;-76
2022/03/31 02:49:27;;;;;;;;;;;3.90;99.90;;;;;;5093425;28;19915;-76
2022/03/31 02:51:52;;;;;;;;;;;3.90;99.90;;;;;;5100823;28;19908;-77
2022/03/31 02:57:02;;;;;;;;;;;3.90;99.90;;;;;;5093470;28;19916;-76
2022/03/31 02:59:30;;;;;;;;;;;3.90;99.90;;;;;;5094189;28;19920;-77
2022/03/31 03:01:56;;;;;;;;;;;3.90;99.90;;;;;;5095009;28;20028;-76
2022/03/31 03:04:24;;;;;;;;;;;3.90;99.90;;;;;;5093635;28;19912;-77
2022/03/31 03:06:49;;;;;;;;;;;3.80;99.90;;;;;;5093682;28;19947;-76
2022/03/31 03:09:15;;;;;;;;;;;3.80;99.90;;;;;;5093958;28;20265;-77
2022/03/31 03:11:40;;;;;;;;;;;3.80;99.90;;;;;;5093635;28;19914;-76
2022/03/31 03:14:06;;;;;;;;;;;3.80;99.90;;;;;;5093297;28;19908;-77
2022/03/31 03:16:32;;;;;;;;;;;3.80;99.90;;;;;;5093321;28;19987;-76
2022/03/31 03:18:59;;;;;;;;;;;3.80;99.90;;;;;;5092913;28;19953;-77
2022/03/31 03:21:24;;;;;;;;;;;3.80;99.90;;;;;;5093833;28;19916;-75
2022/03/31 03:23:50;;;;;;;;;;;3.70;99.90;;;;;;5093621;28;20339;-77
2022/03/31 03:26:15;;;;;;;;;;;3.80;99.90;;;;;;5093361;28;20357;-75
2022/03/31 03:28:41;;;;;;;;;;;3.70;99.90;;;;;;5093798;28;19919;-77
2022/03/31 03:31:07;;;;;;;;;;;3.70;99.90;;;;;;5092821;28;20266;-77
2022/03/31 03:33:33;;;;;;;;;;;3.70;99.90;;;;;;5093535;28;20365;-76
2022/03/31 03:35:59;;;;;;;;;;;3.70;99.90;;;;;;5094006;28;19915;-76
2022/03/31 03:38:25;;;;;;;;;;;3.60;99.90;;;;;;5103164;28;20012;-75
2022/03/31 03:40:51;;;;;;;;;;;3.60;99.90;;;;;;5092924;28;19908;-75
2022/03/31 03:43:17;;;;;;;;;;;3.60;99.90;;;;;;5093366;28;20351;-75
2022/03/31 03:45:43;;;;;;;;;;;3.60;99.90;;;;;;5093139;28;19935;-75
2022/03/31 03:48:10;;;;;;;;;;;3.60;99.90;;;;;;5092635;28;20377;-75
2022/03/31 03:50:36;;;;;;;;;;;3.60;99.90;;;;;;5092983;28;19909;-76
2022/03/31 03:53:03;;;;;;;;;;;3.60;99.90;;;;;;5092677;28;19975;-75
2022/03/31 03:55:30;;;;;;;;;;;3.60;99.90;;;;;;5093182;28;19908;-75
2022/03/31 03:57:55;;;;;;;;;;;3.60;99.90;;;;;;5092308;28;19953;-76
2022/03/31 04:00:22;;;;;;;;;;;3.60;99.90;;;;;;5093588;28;19912;-75
2022/03/31 04:02:47;;;;;;;;;;;3.60;99.90;;;;;;5093172;28;19923;-75
2022/03/31 04:05:13;;;;;;;;;;;3.60;99.90;;;;;;5092562;28;19920;-78
2022/03/31 04:07:39;;;;;;;;;;;3.60;99.90;;;;;;5092833;28;19937;-78
2022/03/31 04:10:05;;;;;;;;;;;3.60;99.90;;;;;;5092360;28;20288;-75
2022/03/31 04:12:30;;;;;;;;;;;3.60;99.90;;;;;;5093462;28;19915;-76
2022/03/31 04:14:56;;;;;;;;;;;3.60;99.90;;;;;;5092512;28;19908;-77
2022/03/31 04:17:21;;;;;;;;;;;3.60;99.90;;;;;;5093029;28;20366;-77
2022/03/31 04:19:47;;;;;;;;;;;3.60;99.90;;;;;;5094708;28;19915;-77
2022/03/31 04:22:13;;;;;;;;;;;3.60;99.90;;;;;;5107805;28;19916;-78
2022/03/31 04:24:39;;;;;;;;;;;3.60;99.90;;;;;;5094772;28;19948;-78
2022/03/31 04:27:05;;;;;;;;;;;3.60;99.90;;;;;;5092013;28;19912;-78
2022/03/31 04:29:30;;;;;;;;;;;3.60;99.90;;;;;;5092933;28;19908;-78
2022/03/31 04:31:56;;;;;;;;;;;3.60;99.90;;;;;;5074440;28;19915;-76
2022/03/31 04:34:21;;;;;;;;;;;3.70;99.90;;;;;;5091688;28;19915;-77
2022/03/31 04:36:47;;;;;;;;;;;3.70;99.90;;;;;;5092693;28;19909;-77
2022/03/31 04:39:13;;;;;;;;;;;3.60;99.90;;;;;;5092405;28;19990;-77
2022/03/31 04:41:40;;;;;;;;;;;3.60;99.90;;;;;;5092859;28;19908;-77
2022/03/31 04:44:06;;;;;;;;;;;3.50;99.90;;;;;;5092257;28;19915;-77
2022/03/31 04:46:33;;;;;;;;;;;3.50;99.90;;;;;;5092847;28;19957;-77
2022/03/31 04:48:59;;;;;;;;;;;3.40;99.90;;;;;;5091930;28;19955;-77
2022/03/31 04:51:24;;;;;;;;;;;3.20;99.90;;;;;;5092840;28;20321;-77
2022/03/31 04:53:50;;;;;;;;;;;3.10;99.90;;;;;;5092988;28;19994;-77
2022/03/31 04:56:16;;;;;;;;;;;3.00;99.90;;;;;;5092124;28;20148;-76
2022/03/31 04:58:42;;;;;;;;;;;3.00;99.90;;;;;;5092297;28;19963;-76
2022/03/31 05:01:07;;;;;;;;;;;2.90;99.90;;;;;;5091833;28;20383;-76
2022/03/31 05:03:33;;;;;;;;;;;2.80;99.90;;;;;;5091321;28;20011;-76
2022/03/31 05:05:59;;;;;;;;;;;2.70;99.90;;;;;;5103309;28;19938;-76
2022/03/31 05:08:24;;;;;;;;;;;2.70;99.90;;;;;;5098512;28;19966;-76
2022/03/31 05:10:50;;;;;;;;;;;2.60;99.90;;;;;;5092720;28;19908;-76
2022/03/31 05:13:16;;;;;;;;;;;2.50;99.90;;;;;;5091185;28;20228;-76
2022/03/31 05:15:41;;;;;;;;;;;2.50;99.90;;;;;;5092392;28;19915;-76
2022/03/31 05:18:07;;;;;;;;;;;2.40;99.90;;;;;;5091674;28;19908;-76
2022/03/31 05:20:32;;;;;;;;;;;2.30;99.90;;;;;;5091956;28;19912;-76
2022/03/31 05:22:58;;;;;;;;;;;2.30;99.90;;;;;;5090748;28;19937;-76
2022/03/31 05:25:24;;;;;;;;;;;2.20;99.90;;;;;;5092099;28;20020;-76
2022/03/31 05:27:50;;;;;;;;;;;2.20;99.90;;;;;;5092207;28;19920;-76
2022/03/31 05:30:18;;;;;;;;;;;2.10;99.90;;;;;;5091264;28;19958;-76
2022/03/31 05:32:44;;;;;;;;;;;2.10;99.90;;;;;;5094990;28;19923;-75
2022/03/31 05:35:11;;;;;;;;;;;2.00;99.90;;;;;;5103604;28;19909;-76
2022/03/31 05:37:37;;;;;;;;;;;2.10;99.90;;;;;;5094620;28;19931;-76
2022/03/31 05:40:06;;;;;;;;;;;2.10;99.90;;;;;;5095048;28;19908;-77
2022/03/31 05:42:32;;;;;;;;;;;2.20;99.90;;;;;;5095545;28;19909;-76
2022/03/31 05:44:59;;;;;;;;;;;2.20;99.90;;;;;;5095248;28;20322;-76
2022/03/31 05:47:24;;;;;;;;;;;2.20;99.90;;;;;;5095517;28;19948;-76
2022/03/31 05:49:50;;;;;;;;;;;2.20;99.90;;;;;;5099257;28;19908;-75
2022/03/31 05:52:16;;;;;;;;;;;2.20;99.90;;;;;;5102979;28;19908;-77
2022/03/31 05:54:42;;;;;;;;;;;2.20;99.90;;;;;;5095279;28;19931;-77
2022/03/31 05:57:08;;;;;;;;;;;2.20;99.90;;;;;;5094741;28;20011;-76
2022/03/31 05:59:34;;;;;;;;;;;2.30;99.90;;;;;;5095238;28;19971;-76
2022/03/31 06:01:59;;;;;;;;;;;2.30;99.90;;;;;;5095435;28;19909;-76
2022/03/31 06:04:25;;;;;;;;;;;2.30;99.90;;;;;;5094599;28;19922;-76
2022/03/31 06:06:50;;;;;;;;;;;2.30;99.90;;;;;;5095287;28;20304;-76
2022/03/31 06:09:16;;;;;;;;;;;2.30;99.90;;;;;;5094880;28;19955;-76
2022/03/31 06:11:42;;;;;;;;;;;2.30;99.90;;;;;;5095415;28;19954;-76
2022/03/31 06:14:08;;;;;;;;;;;2.40;99.90;;;;;;5094928;28;20408;-76
2022/03/31 06:16:34;;;;;;;;;;;2.30;99.90;;;;;;5095053;28;19908;-76
2022/03/31 06:19:00;;;;;;;;;;;2.30;99.90;;;;;;5095015;28;19919;-76
2022/03/31 06:21:26;;;;;;;;;;;2.30;99.90;;;;;;5094090;28;19908;-76
2022/03/31 06:23:51;;;;;;;;;;;2.30;99.90;;;;;;5095020;28;19908;-76
2022/03/31 06:26:17;;;;;;;;;;;2.30;99.90;;;;;;5094316;28;19912;-76
2022/03/31 06:28:43;;;;;;;;;;;2.40;99.90;;;;;;5095177;28;19977;-76
2022/03/31 06:31:09;;;;;;;;;;;2.40;99.90;;;;;;5094347;28;19947;-76
2022/03/31 06:33:34;;;;;;;;;;;2.40;99.90;;;;;;5097162;28;19912;-75
2022/03/31 06:36:00;;;;;;;;;;;2.40;99.90;;;;;;5106344;28;19908;-76
2022/03/31 06:38:26;;;;;;;;;;;2.40;99.90;;;;;;5093965;28;19943;-77
2022/03/31 06:41:07;;;;;;;;;;;2.50;99.90;;;;;;5094519;28;19908;-77
2022/03/31 06:43:33;;;;;;;;;;;2.50;99.90;;;;;;5094105;28;20341;-78
2022/03/31 06:45:59;;;;;;;;;;;2.60;99.90;;;;;;5093103;28;20340;-77
2022/03/31 06:48:26;;;;;;;;;;;2.60;99.90;;;;;;5094012;28;20003;-78
2022/03/31 06:50:52;;;;;;;;;;;2.60;99.90;;;;;;5095099;28;19931;-78
2022/03/31 06:53:18;;;;;;;;;;;2.60;99.90;;;;;;5093571;28;19912;-77
2022/03/31 06:55:44;;;;;;;;;;;2.70;99.90;;;;;;5094243;28;19912;-78
2022/03/31 06:58:09;;;;;;;;;;;2.80;99.90;;;;;;5093243;28;20254;-77
2022/03/31 07:00:35;;;;;;;;;;;2.70;99.90;;;;;;5093915;28;19908;-77
2022/03/31 07:03:00;;;;;;;;;;;2.70;99.90;;;;;;5093805;28;20401;-76
2022/03/31 07:05:26;;;;;;;;;;;2.60;99.90;;;;;;5093274;28;19908;-76
2022/03/31 07:07:52;;;;;;;;;;;2.50;99.90;;;;;;5093155;28;19912;-76
2022/03/31 07:10:18;;;;;;;;;;;2.50;99.90;;;;;;5093232;28;20242;-77
2022/03/31 07:12:44;;;;;;;;;;;2.50;99.90;;;;;;5093901;28;19912;-76
2022/03/31 07:15:09;;;;;;;;;;;2.50;99.90;;;;;;5092934;28;19916;-77
2022/03/31 07:17:35;;;;;;;;;;;2.50;99.90;;;;;;5097362;28;19997;-75
2022/03/31 07:20:01;;;;;;;;;;;2.50;99.90;;;;;;5103558;28;19908;-76
2022/03/31 07:22:26;;;;;;;;;;;2.50;99.90;;;;;;5093270;28;20505;-77
2022/03/31 07:24:52;;;;;;;;;;;2.50;99.90;;;;;;5093457;28;19912;-77
2022/03/31 07:27:17;;;;;;;;;;;2.40;99.90;;;;;;5091547;28;20251;-76
2022/03/31 07:29:43;;;;;;;;;;;2.50;99.90;;;;;;5093049;28;20319;-76
2022/03/31 07:32:09;;;;;;;;;;;2.50;99.90;;;;;;5092642;28;20004;-76
2022/03/31 07:34:34;;;;;;;;;;;2.60;99.90;;;;;;5093180;28;19957;-76
2022/03/31 07:37:00;;;;;;;;;;;2.90;99.90;;;;;;5093269;28;20333;-76
2022/03/31 07:39:26;;;;;;;;;;;3.10;99.90;;;;;;5092731;28;19914;-76
2022/03/31 07:41:52;;;;;;;;;;;3.50;99.90;;;;;;5093838;28;19915;-76
2022/03/31 07:44:17;;;;;;;;;;;3.80;99.90;;;;;;5091382;28;19908;-76
2022/03/31 07:46:43;;;;;;;;;;;4.00;99.90;;;;;;5093060;28;20364;-76
2022/03/31 07:49:09;;;;;;;;;;;4.20;99.90;;;;;;5092876;28;19908;-76
2022/03/31 07:51:34;;;;;;;;;;;4.50;99.90;;;;;;5092604;28;19908;-77
2022/03/31 07:54:01;;;;;;;;;;;4.60;99.90;;;;;;5093034;28;20246;-76
2022/03/31 07:56:27;;;;;;;;;;;4.70;99.90;;;;;;5091419;28;19912;-76
2022/03/31 07:58:52;;;;;;;;;;;4.70;99.90;;;;;;5092814;28;19920;-75
2022/03/31 08:01:18;;;;;;;;;;;4.70;99.90;;;;;;5092374;28;20261;-76
2022/03/31 08:03:44;;;;;;;;;;;4.60;99.90;;;;;;5095916;28;19912;-76
2022/03/31 08:06:09;;;;;;;;;;;4.50;99.90;;;;;;5095542;28;19912;-75
2022/03/31 08:08:35;;;;;;;;;;;4.40;99.90;;;;;;5095205;28;19965;-76
2022/03/31 08:11:00;;;;;;;;;;;4.40;99.90;;;;;;5092516;28;20294;-77
2022/03/31 08:13:27;;;;;;;;;;;4.30;99.90;;;;;;5092286;28;20422;-76
2022/03/31 08:15:53;;;;;;;;;;;4.20;99.90;;;;;;5092744;28;19908;-77
2022/03/31 08:18:19;;;;;;;;;;;4.30;99.90;;;;;;5092351;28;20007;-76
2022/03/31 08:20:45;;;;;;;;;;;4.30;99.90;;;;;;5092381;28;19912;-76
2022/03/31 08:23:11;;;;;;;;;;;4.60;99.90;;;;;;5092433;28;20306;-76
2022/03/31 08:25:36;;;;;;;;;;;4.80;99.90;;;;;;5091872;28;19955;-76
2022/03/31 08:28:02;;;;;;;;;;;5.00;99.90;;;;;;5092733;28;19948;-76
2022/03/31 08:30:28;;;;;;;;;;;5.30;99.90;;;;;;5092011;28;19908;-76
2022/03/31 08:32:54;;;;;;;;;;;5.50;99.90;;;;;;5091507;28;19912;-75
2022/03/31 08:35:20;;;;;;;;;;;5.70;99.90;;;;;;5091835;28;19908;-74
2022/03/31 08:37:45;;;;;;;;;;;5.70;99.90;;;;;;5092363;28;20399;-76
2022/03/31 08:40:12;;;;;;;;;;;5.80;99.90;;;;;;5091434;28;20349;-76
2022/03/31 08:42:38;;;;;;;;;;;5.80;99.90;;;;;;5092056;28;19915;-76
2022/03/31 08:45:04;;;;;;;;;;;5.80;99.90;;;;;;5092318;28;19922;-76
2022/03/31 08:47:30;;;;;;;;;;;5.80;99.90;;;;;;5091964;28;19981;-75
2022/03/31 08:49:56;;;;;;;;;;;5.90;99.90;;;;;;5092176;28;20340;-75
2022/03/31 08:52:24;;;;;;;;;;;6.00;99.90;;;;;;5091810;28;20006;-75
2022/03/31 08:54:50;;;;;;;;;;;6.00;99.90;;;;;;5092190;28;19995;-75
2022/03/31 08:57:17;;;;;;;;;;;6.00;99.90;;;;;;5091188;28;20369;-76
2022/03/31 08:59:42;;;;;;;;;;;5.90;99.90;;;;;;5092326;28;19965;-75
2022/03/31 09:02:08;;;;;;;;;;;6.00;99.90;;;;;;5092752;28;19912;-75
2022/03/31 09:04:34;;;;;;;;;;;6.00;99.90;;;;;;5091200;28;20588;-75
2022/03/31 09:07:03;;;;;;;;;;;6.20;99.90;;;;;;5093795;28;19912;-75
2022/03/31 09:09:29;;;;;;;;;;;6.30;99.90;;;;;;5095956;28;20257;-75
2022/03/31 09:11:54;;;;;;;;;;;6.50;99.90;;;;;;5096055;28;19908;-75
2022/03/31 09:14:28;;;;;;;;;;;6.50;99.90;;;;;;5095623;28;20265;-75
2022/03/31 09:16:53;;;;;;;;;;;6.60;99.90;;;;;;5095964;28;19918;-75
2022/03/31 09:19:20;;;;;;;;;;;6.70;99.90;;;;;;5095678;28;20334;-75
2022/03/31 09:21:52;;;;;;;;;;;6.80;99.90;;;;;;5096000;28;19908;-76
2022/03/31 09:24:19;;;;;;;;;;;7.00;99.90;;;;;;5093530;28;20404;-75
2022/03/31 09:26:45;;;;;;;;;;;7.00;99.90;;;;;;5095978;28;19922;-75
2022/03/31 09:29:12;;;;;;;;;;;7.30;99.90;;;;;;5095897;28;19908;-74
2022/03/31 09:31:38;;;;;;;;;;;7.30;99.90;;;;;;5095418;28;19908;-75
2022/03/31 09:34:04;;;;;;;;;;;7.00;99.90;;;;;;5095373;28;19930;-75
2022/03/31 09:36:30;;;;;;;;;;;6.60;99.90;;;;;;5095038;28;19908;-75
2022/03/31 09:38:58;;;;;;;;;;;6.30;99.90;;;;;;5095682;28;19908;-76
2022/03/31 09:41:30;;;;;;;;;;;5.90;99.90;;;;;;5095195;28;19912;-74
2022/03/31 09:43:57;;;;;;;;;;;5.80;99.90;;;;;;5095930;28;19908;-75
2022/03/31 09:46:26;;;;;;;;;;;5.70;99.90;;;;;;5095039;28;19919;-75
2022/03/31 09:48:52;;;;;;;;;;;5.70;99.90;;;;;;5095531;28;20365;-75
2022/03/31 09:51:19;;;;;;;;;;;5.70;99.90;;;;;;5095376;28;19961;-75
2022/03/31 09:53:47;;;;;;;;;;;5.70;99.90;;;;;;5095213;28;19910;-74
2022/03/31 09:56:13;;;;;;;;;;;6.00;99.90;;;;;;5094596;28;19931;-75
2022/03/31 09:58:43;;;;;;;;;;;6.30;99.90;;;;;;5093601;28;19916;-75
2022/03/31 10:01:09;;;;;;;;;;;6.40;99.90;;;;;;5095333;28;19908;-74
2022/03/31 10:03:37;;;;;;;;;;;6.30;99.90;;;;;;5093850;28;19908;-75
2022/03/31 10:06:03;;;;;;;;;;;6.00;99.90;;;;;;5094137;28;19920;-75
2022/03/31 10:08:32;;;;;;;;;;;5.80;99.90;;;;;;5093879;28;19912;-75
2022/03/31 10:10:58;;;;;;;;;;;5.80;99.90;;;;;;5094481;28;19930;-75
2022/03/31 10:13:25;;;;;;;;;;;5.90;99.90;;;;;;5093914;28;20267;-75
2022/03/31 10:15:56;;;;;;;;;;;5.90;99.90;;;;;;5094394;28;19908;-75
2022/03/31 10:18:22;;;;;;;;;;;5.80;99.90;;;;;;5092865;28;19908;-75
2022/03/31 10:20:56;;;;;;;;;;;6.10;99.90;;;;;;5094595;28;20265;-75
2022/03/31 10:26:06;;;;;;;;;;;6.10;99.90;;;;;;5092698;28;20011;-75
2022/03/31 10:28:31;;;;;;;;;;;6.00;99.90;;;;;;5093489;28;19943;-76
2022/03/31 10:31:01;;;;;;;;;;;6.10;99.90;;;;;;5094600;28;19915;-75
2022/03/31 10:33:29;;;;;;;;;;;6.00;99.90;;;;;;5093336;28;20424;-75
2022/03/31 10:36:03;;;;;;;;;;;6.00;99.90;;;;;;5094040;28;20272;-76
2022/03/31 10:38:32;;;;;;;;;;;6.00;99.90;;;;;;5093419;28;19958;-76
2022/03/31 10:41:03;;;;;;;;;;;6.20;99.90;;;;;;5093747;28;19915;-75
2022/03/31 10:43:29;;;;;;;;;;;6.40;99.90;;;;;;5092017;28;19931;-75
2022/03/31 10:45:57;;;;;;;;;;;6.50;99.90;;;;;;5093866;28;19912;-75
2022/03/31 10:48:24;;;;;;;;;;;6.50;99.90;;;;;;5091681;28;19912;-75
2022/03/31 10:51:06;;;;;;;;;;;6.60;99.90;;;;;;5093628;28;19968;-75
2022/03/31 10:53:33;;;;;;;;;;;6.80;99.90;;;;;;5093103;28;19999;-74
2022/03/31 10:56:00;;;;;;;;;;;6.80;99.90;;;;;;5093189;28;19915;-75
2022/03/31 10:58:28;;;;;;;;;;;6.90;99.90;;;;;;5092899;28;20646;-74
2022/03/31 11:01:12;;;;;;;;;;;6.80;99.90;;;;;;5094168;28;19912;-76
2022/03/31 11:03:37;;;;;;;;;;;6.80;99.90;;;;;;5093865;28;19908;-76
2022/03/31 11:06:08;;;;;;;;;;;6.90;99.90;;;;;;5094049;28;19923;-75
2022/03/31 11:08:40;;;;;;;;;;;7.00;99.90;;;;;;5093563;28;19916;-75
2022/03/31 11:11:05;;;;;;;;;;;7.10;99.90;;;;;;5093850;28;20327;-75
2022/03/31 11:13:32;;;;;;;;;;;7.00;99.90;;;;;;5093079;28;20037;-76
2022/03/31 11:15:58;;;;;;;;;;;6.80;99.90;;;;;;5093643;28;19951;-76
2022/03/31 11:18:24;;;;;;;;;;;6.80;99.90;;;;;;5093001;28;19989;-76
2022/03/31 11:20:54;;;;;;;;;;;7.00;99.90;;;;;;5093430;28;19908;-76
2022/03/31 11:23:20;;;;;;;;;;;7.00;99.90;;;;;;5093093;28;19955;-76
2022/03/31 11:25:46;;;;;;;;;;;7.10;99.90;;;;;;5092785;28;20001;-75
2022/03/31 11:28:12;;;;;;;;;;;7.10;99.90;;;;;;5093902;28;20062;-75
2022/03/31 11:30:39;;;;;;;;;;;7.10;99.90;;;;;;5093020;28;19969;-76
2022/03/31 11:33:05;;;;;;;;;;;7.10;99.90;;;;;;5092273;28;19953;-77
2022/03/31 11:35:30;;;;;;;;;;;6.90;99.90;;;;;;5092752;28;20280;-77
2022/03/31 11:37:57;;;;;;;;;;;6.60;99.90;;;;;;5093511;28;19915;-76
2022/03/31 11:40:23;;;;;;;;;;;6.50;99.90;;;;;;5093375;28;19908;-75
2022/03/31 11:42:50;;;;;;;;;;;6.40;99.90;;;;;;5091711;28;19908;-76
2022/03/31 11:45:24;;;;;;;;;;;6.40;99.90;;;;;;5093100;28;19912;-76
2022/03/31 11:47:55;;;;;;;;;;;6.30;99.90;;;;;;5093113;28;19919;-75
2022/03/31 11:50:20;;;;;;;;;;;6.40;99.90;;;;;;5093315;28;19908;-76
2022/03/31 11:52:48;;;;;;;;;;;6.40;99.90;;;;;;5092655;28;19912;-76
2022/03/31 11:55:14;;;;;;;;;;;6.40;99.90;;;;;;5093081;28;20361;-76
2022/03/31 11:57:49;;;;;;;;;;;6.60;99.90;;;;;;5094021;28;19934;-76
2022/03/31 12:00:14;;;;;;;;;;;6.70;99.90;;;;;;5093535;28;20003;-76
2022/03/31 12:02:40;;;;;;;;;;;6.80;99.90;;;;;;5092554;28;19957;-75
2022/03/31 12:05:12;;;;;;;;;;;6.90;99.90;;;;;;5092813;28;19920;-76
2022/03/31 12:07:37;;;;;;;;;;;7.00;99.90;;;;;;5092519;28;19919;-76
2022/03/31 12:10:03;;;;;;;;;;;7.30;99.90;;;;;;5092801;28;19912;-77
2022/03/31 12:12:29;;;;;;;;;;;7.40;99.90;;;;;;5089334;28;19908;-76
2022/03/31 12:14:57;;;;;;;;;;;7.20;99.90;;;;;;5091731;28;19915;-76
2022/03/31 12:17:23;;;;;;;;;;;7.00;99.90;;;;;;5091832;28;20289;-76
2022/03/31 12:19:49;;;;;;;;;;;6.90;99.90;;;;;;5091749;28;19939;-76
2022/03/31 12:22:15;;;;;;;;;;;7.10;99.90;;;;;;5092139;28;20384;-76
2022/03/31 12:24:51;;;;;;;;;;;7.30;99.90;;;;;;5092035;28;19966;-77
2022/03/31 12:27:18;;;;;;;;;;;7.30;99.90;;;;;;5092487;28;19912;-77
2022/03/31 12:29:44;;;;;;;;;;;7.40;99.90;;;;;;5091708;28;20442;-76
2022/03/31 12:32:11;;;;;;;;;;;7.50;99.90;;;;;;5092360;28;20019;-75
2022/03/31 12:34:38;;;;;;;;;;;7.40;99.90;;;;;;5091560;28;19915;-75
2022/03/31 12:37:04;;;;;;;;;;;7.30;99.90;;;;;;5092102;28;19919;-75
2022/03/31 12:39:38;;;;;;;;;;;7.40;99.90;;;;;;5091766;28;19908;-75
2022/03/31 12:42:07;;;;;;;;;;;7.70;99.90;;;;;;5092731;28;19912;-75
2022/03/31 12:44:38;;;;;;;;;;;8.00;99.90;;;;;;5095771;28;20003;-75
2022/03/31 12:47:09;;;;;;;;;;;8.10;99.90;;;;;;5096351;28;19955;-75
2022/03/31 12:49:36;;;;;;;;;;;7.80;99.90;;;;;;5095925;28;19916;-75
2022/03/31 12:52:04;;;;;;;;;;;7.60;99.90;;;;;;5097750;28;19908;-77
2022/03/31 12:54:32;;;;;;;;;;;7.60;99.90;;;;;;5096712;28;19908;-75
2022/03/31 12:57:00;;;;;;;;;;;7.40;99.90;;;;;;5096024;28;20434;-76
2022/03/31 12:59:26;;;;;;;;;;;7.40;99.90;;;;;;5094876;28;19920;-76
2022/03/31 13:02:00;;;;;;;;;;;7.60;99.90;;;;;;5096165;28;19908;-76
2022/03/31 13:04:25;;;;;;;;;;;7.60;99.90;;;;;;5096716;28;19908;-76
2022/03/31 13:06:51;;;;;;;;;;;7.80;99.90;;;;;;5095515;28;19965;-76
2022/03/31 13:09:17;;;;;;;;;;;7.70;99.90;;;;;;5096182;28;19908;-77
2022/03/31 13:11:43;;;;;;;;;;;7.70;99.90;;;;;;5095622;28;19908;-76
2022/03/31 13:14:12;;;;;;;;;;;7.70;99.90;;;;;;5096310;28;19908;-77
2022/03/31 13:16:40;;;;;;;;;;;7.80;99.90;;;;;;5095599;28;19908;-77
2022/03/31 13:19:06;;;;;;;;;;;7.70;99.90;;;;;;5096405;28;20337;-77
2022/03/31 13:21:32;;;;;;;;;;;7.80;99.90;;;;;;5095559;28;19909;-77
2022/03/31 13:23:58;;;;;;;;;;;8.00;99.90;;;;;;5095818;28;19908;-78
2022/03/31 13:26:24;;;;;;;;;;;8.10;99.90;;;;;;5095650;28;19973;-78
2022/03/31 13:28:50;;;;;;;;;;;8.20;99.90;;;;;;5093986;28;19916;-77
2022/03/31 13:31:16;;;;;;;;;;;8.10;99.90;;;;;;5095634;28;19908;-77
2022/03/31 13:33:42;;;;;;;;;;;7.90;99.90;;;;;;5095013;28;20264;-77
2022/03/31 13:36:07;;;;;;;;;;;8.00;99.90;;;;;;5095648;28;19908;-77
2022/03/31 13:38:35;;;;;;;;;;;8.30;99.90;;;;;;5093653;28;20445;-75
2022/03/31 13:41:01;;;;;;;;;;;8.10;99.90;;;;;;5095370;28;19908;-76
2022/03/31 13:43:27;;;;;;;;;;;8.20;99.90;;;;;;5095326;28;19927;-75
2022/03/31 13:45:53;;;;;;;;;;;8.10;99.90;;;;;;5094385;28;19912;-75
2022/03/31 13:48:18;;;;;;;;;;;7.90;99.90;;;;;;5095199;28;19912;-76
2022/03/31 13:50:45;;;;;;;;;;;7.70;99.90;;;;;;5094683;28;19952;-75
2022/03/31 13:55:55;;;;;;;;;;;7.90;99.90;;;;;;5094367;28;20371;-75
2022/03/31 14:01:08;;;;;;;;;;;8.30;99.90;;;;;;5095345;28;19970;-76
2022/03/31 14:03:34;;;;;;;;;;;8.40;99.90;;;;;;5094608;28;19912;-76
2022/03/31 14:06:00;;;;;;;;;;;8.40;99.90;;;;;;5094929;28;19912;-76
2022/03/31 14:08:25;;;;;;;;;;;8.30;99.90;;;;;;5095047;28;20387;-76
2022/03/31 14:10:51;;;;;;;;;;;8.40;99.90;;;;;;5094347;28;19908;-76
2022/03/31 14:13:17;;;;;;;;;;;8.50;99.90;;;;;;5093605;28;19909;-76
2022/03/31 14:15:42;;;;;;;;;;;8.50;99.90;;;;;;5093785;28;19931;-76
2022/03/31 14:18:08;;;;;;;;;;;8.60;99.90;;;;;;5094024;28;19987;-76
2022/03/31 14:20:34;;;;;;;;;;;8.70;99.90;;;;;;5092715;28;19908;-76
2022/03/31 14:23:02;;;;;;;;;;;8.60;99.90;;;;;;5094088;28;19909;-76
2022/03/31 14:25:28;;;;;;;;;;;8.70;99.90;;;;;;5094559;28;19920;-76
2022/03/31 14:27:53;;;;;;;;;;;8.80;99.90;;;;;;5094196;28;20042;-76
2022/03/31 14:30:19;;;;;;;;;;;8.70;99.90;;;;;;5094346;28;20379;-76
2022/03/31 14:32:45;;;;;;;;;;;8.70;99.90;;;;;;5093832;28;20289;-75
2022/03/31 14:35:10;;;;;;;;;;;8.80;99.90;;;;;;5094233;28;20004;-75
2022/03/31 14:37:36;;;;;;;;;;;8.80;99.90;;;;;;5094272;28;19912;-75